createdAt,value
2022-10-28T00:01:36.532Z,3.17
2022-10-28T00:04:21.889Z,3.70
2022-10-28T00:06:54.798Z,3.45
2022-10-28T00:09:35.067Z,4.13
2022-10-28T00:12:07.116Z,3.70
2022-10-28T00:14:57.043Z,3.40
2022-10-28T00:17:29.046Z,3.85
2022-10-28T00:20:01.908Z,3.45
2022-10-28T00:22:39.929Z,4.18
2022-10-28T00:25:16.980Z,3.28
2022-10-28T00:27:55.715Z,4.47
2022-10-28T00:30:24.808Z,3.30
2022-10-28T00:33:06.667Z,3.58
2022-10-28T00:38:53.282Z,4.18
2022-10-28T00:44:52.477Z,2.65
2022-10-28T00:47:45.375Z,2.78
2022-10-28T00:53:27.952Z,5.65
2022-10-28T00:55:59.083Z,5.05
2022-10-28T00:58:27.515Z,4.07
2022-10-28T01:01:17.861Z,4.55
2022-10-28T01:03:52.558Z,3.70
2022-10-28T01:06:43.185Z,3.55
2022-10-28T01:09:10.783Z,3.22
2022-10-28T01:12:16.737Z,3.17
2022-10-28T01:15:20.557Z,3.38
2022-10-28T01:18:15.625Z,6.00
2022-10-28T01:20:51.361Z,4.35
2022-10-28T01:24:00.002Z,5.65
2022-10-28T01:29:46.055Z,4.40
2022-10-28T01:32:24.839Z,4.40
2022-10-28T01:35:18.960Z,3.17
2022-10-28T01:38:11.623Z,3.90
2022-10-28T01:40:57.701Z,2.70
2022-10-28T01:43:45.425Z,2.95
2022-10-28T01:46:16.454Z,2.83
2022-10-28T01:52:04.835Z,3.20
2022-10-28T01:54:47.241Z,3.25
2022-10-28T01:57:17.863Z,3.33
2022-10-28T01:59:48.776Z,3.10
2022-10-28T02:02:17.038Z,3.03
2022-10-28T02:05:26.828Z,3.60
2022-10-28T02:08:14.061Z,2.33
2022-10-28T02:11:06.733Z,2.08
2022-10-28T02:14:08.633Z,2.53
2022-10-28T02:19:52.587Z,2.70
2022-10-28T02:22:45.447Z,3.03
2022-10-28T02:25:19.479Z,3.28
2022-10-28T02:31:03.655Z,2.97
2022-10-28T02:33:45.072Z,3.97
2022-10-28T02:36:33.103Z,5.20
2022-10-28T02:39:03.856Z,6.28
2022-10-28T02:42:00.493Z,10.90
2022-10-28T02:44:46.021Z,6.45
2022-10-28T02:47:16.951Z,3.45
2022-10-28T02:49:56.737Z,3.20
2022-10-28T02:52:26.443Z,3.75
2022-10-28T02:55:08.565Z,3.63
2022-10-28T02:57:58.217Z,3.40
2022-10-28T03:00:26.278Z,4.10
2022-10-28T03:02:54.516Z,8.48
2022-10-28T03:05:58.752Z,7.82
2022-10-28T03:08:28.497Z,6.47
2022-10-28T03:11:03.368Z,5.72
2022-10-28T03:13:36.193Z,10.43
2022-10-28T03:16:07.067Z,6.10
2022-10-28T03:18:41.045Z,7.13
2022-10-28T03:21:11.097Z,6.38
2022-10-28T03:23:57.426Z,4.82
2022-10-28T03:26:51.216Z,5.20
2022-10-28T03:29:26.308Z,5.18
2022-10-28T03:31:56.057Z,6.13
2022-10-28T03:34:23.784Z,5.85
2022-10-28T03:36:59.988Z,6.93
2022-10-28T03:39:31.065Z,7.38
2022-10-28T03:42:18.347Z,6.45
2022-10-28T03:45:11.118Z,4.97
2022-10-28T03:47:41.492Z,9.45
2022-10-28T03:50:25.143Z,6.07
2022-10-28T03:52:58.125Z,5.50
2022-10-28T03:55:50.834Z,9.88
2022-10-28T03:58:40.881Z,12.93
2022-10-28T04:01:14.504Z,6.88
2022-10-28T04:03:42.273Z,7.65
2022-10-28T04:06:21.154Z,6.45
2022-10-28T04:09:10.783Z,6.20
2022-10-28T04:11:40.712Z,5.30
2022-10-28T04:14:16.740Z,5.13
2022-10-28T04:16:44.513Z,5.55
2022-10-28T04:19:30.671Z,4.78
2022-10-28T04:22:13.464Z,5.07
2022-10-28T04:24:50.392Z,4.30
2022-10-28T04:27:18.252Z,10.23
2022-10-28T04:29:57.367Z,4.22
2022-10-28T04:32:26.470Z,6.40
2022-10-28T04:35:03.697Z,7.95
2022-10-28T04:38:01.683Z,20.67
2022-10-28T04:40:29.552Z,10.25
2022-10-28T04:43:13.003Z,9.32
2022-10-28T04:45:40.935Z,21.30
2022-10-28T04:48:18.001Z,10.02
2022-10-28T04:51:03.478Z,9.02
2022-10-28T04:53:31.532Z,11.57
2022-10-28T04:59:12.452Z,20.05
2022-10-28T05:01:48.246Z,18.63
2022-10-28T05:04:21.838Z,17.45
2022-10-28T05:06:50.971Z,14.75
2022-10-28T05:09:25.958Z,14.85
2022-10-28T05:11:53.906Z,11.27
2022-10-28T05:14:34.155Z,11.20
2022-10-28T05:17:15.537Z,11.82
2022-10-28T05:19:47.568Z,10.82
2022-10-28T05:22:28.542Z,8.40
2022-10-28T05:25:07.961Z,10.90
2022-10-28T05:28:06.743Z,7.32
2022-10-28T05:30:34.797Z,5.63
2022-10-28T05:33:31.751Z,9.70
2022-10-28T05:36:07.026Z,5.28
2022-10-28T05:38:43.983Z,5.65
2022-10-28T05:41:13.467Z,6.03
2022-10-28T05:43:59.891Z,6.45
2022-10-28T05:46:46.180Z,4.88
2022-10-28T05:49:23.780Z,6.00
2022-10-28T05:51:54.421Z,5.30
2022-10-28T05:54:24.159Z,6.10
2022-10-28T05:56:55.017Z,8.30
2022-10-28T06:02:35.726Z,13.20
2022-10-28T06:05:11.691Z,13.10
2022-10-28T06:07:41.325Z,13.48
2022-10-28T06:16:39.025Z,11.20
2022-10-28T06:19:16.462Z,13.38
2022-10-28T06:21:46.585Z,13.75
2022-10-28T06:24:33.155Z,12.27
2022-10-28T06:27:02.116Z,13.88
2022-10-28T06:29:56.924Z,8.45
2022-10-28T06:32:25.090Z,10.80
2022-10-28T06:34:53.058Z,9.25
2022-10-28T06:37:20.933Z,9.07
2022-10-28T06:40:15.609Z,11.02
2022-10-28T06:42:43.830Z,7.55
2022-10-28T06:45:30.397Z,7.47
2022-10-28T06:48:11.206Z,10.32
2022-10-28T06:50:39.762Z,10.13
2022-10-28T06:53:28.002Z,8.30
2022-10-28T06:55:58.511Z,8.40
2022-10-28T06:58:33.547Z,7.80
2022-10-28T07:01:21.829Z,6.18
2022-10-28T07:04:03.042Z,9.30
2022-10-28T07:06:36.079Z,6.80
2022-10-28T07:12:22.253Z,8.27
2022-10-28T07:14:53.140Z,6.15
2022-10-28T07:17:35.303Z,6.72
2022-10-28T07:20:04.138Z,7.88
2022-10-28T07:22:34.054Z,6.07
2022-10-28T07:25:35.587Z,8.90
2022-10-28T07:28:32.479Z,6.95
2022-10-28T07:31:44.333Z,8.45
2022-10-28T07:34:13.220Z,5.68
2022-10-28T07:36:54.370Z,14.85
2022-10-28T07:39:24.778Z,4.78
2022-10-28T07:42:33.968Z,4.80
2022-10-28T07:45:24.453Z,8.23
2022-10-28T07:47:52.602Z,6.57
2022-10-28T07:50:34.770Z,4.88
2022-10-28T07:53:02.936Z,6.43
2022-10-28T07:55:46.323Z,5.45
2022-10-28T07:58:25.404Z,5.32
2022-10-28T08:01:03.840Z,5.25
2022-10-28T08:03:51.121Z,5.75
2022-10-28T08:06:37.199Z,5.50
2022-10-28T08:12:26.745Z,6.30
2022-10-28T08:14:57.882Z,8.20
2022-10-28T08:17:25.749Z,7.22
2022-10-28T08:20:00.216Z,6.65
2022-10-28T08:22:45.390Z,5.93
2022-10-28T08:25:16.350Z,5.60
2022-10-28T08:27:55.505Z,5.78
2022-10-28T08:30:24.562Z,5.60
2022-10-28T08:32:56.247Z,6.63
2022-10-28T08:35:24.495Z,5.82
2022-10-28T08:37:59.039Z,5.95
2022-10-28T08:40:32.974Z,5.78
2022-10-28T08:46:20.748Z,5.47
2022-10-28T08:48:59.066Z,5.45
2022-10-28T08:51:40.336Z,5.35
2022-10-28T08:54:16.301Z,5.65
2022-10-28T08:56:50.450Z,6.15
2022-10-28T08:59:23.297Z,6.13
2022-10-28T09:05:07.463Z,5.63
2022-10-28T09:07:37.006Z,5.13
2022-10-28T09:10:07.032Z,5.72
2022-10-28T09:16:02.596Z,6.50
2022-10-28T09:18:49.440Z,6.13
2022-10-28T09:21:33.094Z,6.20
2022-10-28T09:24:16.836Z,7.05
2022-10-28T09:30:20.046Z,5.72
2022-10-28T09:33:06.907Z,6.78
2022-10-28T09:35:56.508Z,8.50
2022-10-28T09:38:37.696Z,6.57
2022-10-28T09:41:15.381Z,6.55
2022-10-28T09:47:02.108Z,5.72
2022-10-28T09:49:50.378Z,5.50
2022-10-28T09:52:42.091Z,6.60
2022-10-28T09:55:23.810Z,6.70
2022-10-28T09:57:52.322Z,5.82
2022-10-28T10:00:29.993Z,6.95
2022-10-28T10:03:09.071Z,6.93
2022-10-28T10:05:40.398Z,7.47
2022-10-28T10:11:17.479Z,7.05
2022-10-28T10:14:07.490Z,6.68
2022-10-28T10:16:48.688Z,6.45
2022-10-28T10:19:21.495Z,7.47
2022-10-28T10:21:51.332Z,6.68
2022-10-28T10:24:25.125Z,6.85
2022-10-28T10:27:13.247Z,6.30
2022-10-28T10:29:49.144Z,7.35
2022-10-28T10:32:19.071Z,7.05
2022-10-28T10:35:25.236Z,7.45
2022-10-28T10:38:00.243Z,6.57
2022-10-28T10:40:46.390Z,7.13
2022-10-28T10:43:29.518Z,6.57
2022-10-28T10:46:14.294Z,6.35
2022-10-28T10:48:51.232Z,6.47
2022-10-28T10:51:37.469Z,5.97
2022-10-28T10:54:15.986Z,5.88
2022-10-28T10:57:02.855Z,6.07
2022-10-28T10:59:57.810Z,5.15
2022-10-28T11:02:42.663Z,5.57
2022-10-28T11:05:24.459Z,5.60
2022-10-28T11:08:09.748Z,5.50
2022-10-28T11:11:03.104Z,5.95
2022-10-28T11:13:45.085Z,6.47
2022-10-28T11:19:32.345Z,5.90
2022-10-28T11:22:04.327Z,5.53
2022-10-28T11:24:56.719Z,6.43
2022-10-28T11:27:51.726Z,6.07
2022-10-28T11:30:48.507Z,5.70
2022-10-28T11:33:36.370Z,5.55
2022-10-28T11:36:26.076Z,4.63
2022-10-28T11:39:31.235Z,4.90
2022-10-28T11:42:32.215Z,5.00
2022-10-28T11:45:22.654Z,5.63
2022-10-28T11:48:17.592Z,5.10
2022-10-28T11:50:59.133Z,5.30
2022-10-28T11:53:43.655Z,4.45
2022-10-28T11:56:43.485Z,4.43
2022-10-28T11:59:43.173Z,4.60
2022-10-28T12:02:39.021Z,4.35
2022-10-28T12:05:37.088Z,4.50
2022-10-28T12:08:27.815Z,4.55
2022-10-28T12:11:09.016Z,4.93
2022-10-28T12:14:16.082Z,4.63
2022-10-28T12:17:05.766Z,4.60
2022-10-28T12:19:52.453Z,4.40
2022-10-28T12:22:27.673Z,4.05
2022-10-28T12:24:56.561Z,4.60
2022-10-28T12:27:29.486Z,4.57
2022-10-28T12:30:04.663Z,3.92
2022-10-28T12:32:44.773Z,4.35
2022-10-28T12:35:33.528Z,4.55
2022-10-28T12:38:18.793Z,4.85
2022-10-28T12:41:02.469Z,5.15
2022-10-28T12:43:58.032Z,5.53
2022-10-28T12:49:34.872Z,5.05
2022-10-28T12:52:33.828Z,6.03
2022-10-28T12:55:10.528Z,5.95
2022-10-28T12:57:42.171Z,5.13
2022-10-28T13:00:33.118Z,5.53
2022-10-28T13:03:17.621Z,5.85
2022-10-28T13:05:59.588Z,6.03
2022-10-28T13:08:52.480Z,6.10
2022-10-28T13:11:24.715Z,7.40
2022-10-28T13:14:01.702Z,6.43
2022-10-28T13:16:39.876Z,5.75
2022-10-28T13:19:34.837Z,6.90
2022-10-28T13:22:17.112Z,7.07
2022-10-28T13:25:07.705Z,6.50
2022-10-28T13:30:06.383Z,9.05
2022-10-28T13:32:40.855Z,8.45
2022-10-28T13:35:17.519Z,8.10
2022-10-28T13:37:59.435Z,7.95
2022-10-28T13:40:36.535Z,7.65
2022-10-28T13:43:23.812Z,7.78
2022-10-28T13:46:08.780Z,7.47
2022-10-28T13:48:48.160Z,7.97
2022-10-28T13:51:26.880Z,7.20
2022-10-28T13:54:29.882Z,7.82
2022-10-28T13:57:03.997Z,6.60
2022-10-28T14:00:07.946Z,6.47
2022-10-28T14:02:58.162Z,7.63
2022-10-28T14:05:35.700Z,6.97
2022-10-28T14:08:07.178Z,7.13
2022-10-28T14:10:55.191Z,7.78
2022-10-28T14:13:24.417Z,7.13
2022-10-28T14:19:16.361Z,6.75
2022-10-28T14:22:17.197Z,8.57
2022-10-28T14:24:46.039Z,6.85
2022-10-28T14:27:19.880Z,7.28
2022-10-28T14:30:17.559Z,6.95
2022-10-28T14:32:57.249Z,6.32
2022-10-28T14:35:41.213Z,7.38
2022-10-28T14:38:28.755Z,6.97
2022-10-28T14:41:18.419Z,7.13
2022-10-28T14:44:00.373Z,7.93
2022-10-28T14:46:37.103Z,8.02
2022-10-28T14:49:07.416Z,7.07
2022-10-28T14:55:24.440Z,7.50
2022-10-28T14:58:21.340Z,7.57
2022-10-28T15:01:22.230Z,7.43
2022-10-28T15:04:02.444Z,8.20
2022-10-28T15:09:55.198Z,8.27
2022-10-28T15:12:30.895Z,9.38
2022-10-28T15:14:59.623Z,8.88
2022-10-28T15:17:30.628Z,8.93
2022-10-28T15:20:01.904Z,10.07
2022-10-28T15:28:18.799Z,9.48
2022-10-28T15:30:58.457Z,10.18
2022-10-28T15:33:57.445Z,11.15
2022-10-28T15:36:27.449Z,10.77
2022-10-28T15:42:27.635Z,11.30
2022-10-28T15:45:00.788Z,13.35
2022-10-28T15:47:38.251Z,10.77
2022-10-28T15:50:18.532Z,10.07
2022-10-28T15:52:55.485Z,10.27
2022-10-28T15:56:02.261Z,11.50
2022-10-28T15:58:34.667Z,9.15
2022-10-28T16:01:10.787Z,10.13
2022-10-28T16:03:41.775Z,10.48
2022-10-28T16:06:22.603Z,11.30
2022-10-28T16:09:11.655Z,12.00
2022-10-28T16:11:43.005Z,11.57
2022-10-28T16:16:59.085Z,10.30
2022-10-28T16:19:31.080Z,9.82
2022-10-28T16:22:04.326Z,8.10
2022-10-28T16:24:32.259Z,8.52
2022-10-28T16:27:28.058Z,8.98
2022-10-28T16:30:01.966Z,9.00
2022-10-28T16:32:42.457Z,8.38
2022-10-28T16:35:36.437Z,7.90
2022-10-28T16:38:05.513Z,8.57
2022-10-28T16:40:50.853Z,8.80
2022-10-28T16:43:32.838Z,11.02
2022-10-28T16:48:59.895Z,9.93
2022-10-28T16:51:29.681Z,9.32
2022-10-28T16:54:17.776Z,8.73
2022-10-28T16:57:02.934Z,9.65
2022-10-28T16:59:33.922Z,9.23
2022-10-28T17:02:02.987Z,9.27
2022-10-28T17:04:35.070Z,7.95
2022-10-28T17:07:30.024Z,8.73
2022-10-28T17:10:05.179Z,8.23
2022-10-28T17:12:34.088Z,8.63
2022-10-28T17:15:06.245Z,8.32
2022-10-28T17:17:57.235Z,8.95
2022-10-28T17:20:51.804Z,10.77
2022-10-28T17:23:27.041Z,10.82
2022-10-28T17:26:10.006Z,11.30
2022-10-28T17:28:48.191Z,11.15
2022-10-28T17:31:24.859Z,10.73
2022-10-28T17:34:06.385Z,11.85
2022-10-28T17:36:34.716Z,10.07
2022-10-28T17:39:17.003Z,10.82
2022-10-28T17:41:46.619Z,10.20
2022-10-28T17:44:22.547Z,10.38
2022-10-28T17:46:53.799Z,8.18
2022-10-28T17:49:28.117Z,10.15
2022-10-28T17:55:09.034Z,11.50
2022-10-28T17:57:36.822Z,10.35
2022-10-28T18:00:08.974Z,10.82
2022-10-28T18:02:41.343Z,10.57
2022-10-28T18:05:24.757Z,10.50
2022-10-28T18:07:55.500Z,10.68
2022-10-28T18:10:24.484Z,11.23
2022-10-28T18:12:53.321Z,12.00
2022-10-28T18:15:23.509Z,11.98
2022-10-28T18:17:52.400Z,10.20
2022-10-28T18:20:21.194Z,10.55
2022-10-28T18:22:48.962Z,14.40
2022-10-28T18:25:16.921Z,14.15
2022-10-28T18:27:48.724Z,15.57
2022-10-28T18:30:25.334Z,14.57
2022-10-28T18:33:19.320Z,14.77
2022-10-28T18:35:59.147Z,12.82
2022-10-28T18:38:39.463Z,14.88
2022-10-28T18:41:14.033Z,12.77
2022-10-28T18:44:00.009Z,11.25
2022-10-28T18:46:28.523Z,12.05
2022-10-28T18:49:02.569Z,14.43
2022-10-28T18:51:30.791Z,12.57
2022-10-28T18:54:20.466Z,12.73
2022-10-28T18:56:53.602Z,12.00
2022-10-28T18:59:32.133Z,13.40
2022-10-28T19:02:00.087Z,11.93
2022-10-28T19:04:32.000Z,12.20
2022-10-28T19:07:03.643Z,13.63
2022-10-28T19:09:37.414Z,12.85
2022-10-28T19:15:23.588Z,15.68
2022-10-28T19:18:11.455Z,17.23
2022-10-28T19:20:40.816Z,16.70
2022-10-28T19:23:08.757Z,14.82
2022-10-28T19:25:43.529Z,15.88
2022-10-28T19:28:13.835Z,11.93
2022-10-28T19:30:51.282Z,12.55
2022-10-28T19:33:39.605Z,12.13
2022-10-28T19:36:14.194Z,12.70
2022-10-28T19:38:52.164Z,11.90
2022-10-28T19:41:33.080Z,13.10
2022-10-28T19:44:05.986Z,13.00
2022-10-28T19:46:41.084Z,12.73
2022-10-28T19:49:26.292Z,13.02
2022-10-28T19:52:14.016Z,16.13
2022-10-28T19:54:52.142Z,17.35
2022-10-28T19:57:26.032Z,17.30
2022-10-28T20:00:23.011Z,17.13
2022-10-28T20:03:16.207Z,15.75
2022-10-28T20:05:44.135Z,24.52
2022-10-28T20:08:15.638Z,23.25
2022-10-28T20:13:20.055Z,24.05
2022-10-28T20:15:50.568Z,17.23
2022-10-28T20:18:26.609Z,18.17
2022-10-28T20:20:54.240Z,17.95
2022-10-28T20:23:37.564Z,17.13
2022-10-28T20:26:06.140Z,19.08
2022-10-28T20:28:37.239Z,20.08
2022-10-28T20:31:10.151Z,18.20
2022-10-28T20:33:43.854Z,20.55
2022-10-28T20:39:24.319Z,19.52
2022-10-28T20:41:56.737Z,18.90
2022-10-28T20:47:37.232Z,19.67
2022-10-28T20:50:14.310Z,20.45
2022-10-28T20:52:44.277Z,20.90
2022-10-28T20:55:12.119Z,18.95
2022-10-28T20:57:53.360Z,17.13
2022-10-28T21:00:30.482Z,18.25
2022-10-28T21:03:07.278Z,19.70
2022-10-28T21:06:07.469Z,17.55
2022-10-28T21:08:45.406Z,16.88
2022-10-28T21:14:31.928Z,17.00
2022-10-28T21:17:06.835Z,19.63
2022-10-28T21:26:17.330Z,14.55
2022-10-28T21:28:57.629Z,13.73
2022-10-28T21:31:49.443Z,16.48
2022-10-28T21:34:30.519Z,17.73
2022-10-28T21:36:59.574Z,18.30
2022-10-28T21:39:27.563Z,14.35
2022-10-28T21:42:01.303Z,18.17
2022-10-28T21:44:32.253Z,15.30
2022-10-28T21:47:03.020Z,15.23
2022-10-28T21:49:31.694Z,13.95
2022-10-28T21:52:04.431Z,13.68
2022-10-28T21:54:43.814Z,15.30
2022-10-28T21:57:11.841Z,15.48
2022-10-28T22:02:58.107Z,18.42
2022-10-28T22:05:30.168Z,15.35
2022-10-28T22:08:08.187Z,14.15
2022-10-28T22:10:42.953Z,14.63
2022-10-28T22:13:11.709Z,13.85
2022-10-28T22:16:01.457Z,13.30
2022-10-28T22:18:51.264Z,13.57
2022-10-28T22:21:29.521Z,13.20
2022-10-28T22:24:01.349Z,13.18
2022-10-28T22:26:30.669Z,14.75
2022-10-28T22:28:59.588Z,11.50
2022-10-28T22:31:49.833Z,14.98
2022-10-28T22:34:21.832Z,12.70
2022-10-28T22:36:51.043Z,12.98
2022-10-28T22:42:37.227Z,13.75
2022-10-28T22:48:27.066Z,14.85
2022-10-28T22:50:55.803Z,16.15
2022-10-28T22:53:23.514Z,14.43
2022-10-28T22:56:09.846Z,13.18
2022-10-28T22:58:40.572Z,15.95
2022-10-28T23:01:20.058Z,13.85
2022-10-28T23:03:50.096Z,15.63
2022-10-28T23:06:35.129Z,11.80
2022-10-28T23:09:21.818Z,14.55
2022-10-28T23:11:57.972Z,15.75
2022-10-28T23:14:28.927Z,12.90
2022-10-28T23:16:56.665Z,14.23
2022-10-28T23:19:40.731Z,16.65
2022-10-28T23:22:22.956Z,14.55
2022-10-28T23:24:52.841Z,14.55
2022-10-28T23:27:45.695Z,11.10
2022-10-28T23:30:39.348Z,13.82
2022-10-28T23:33:13.441Z,9.43
2022-10-28T23:35:43.057Z,13.00
2022-10-28T23:38:17.698Z,11.38
2022-10-28T23:41:23.472Z,12.23
2022-10-28T23:43:56.688Z,12.88
2022-10-28T23:46:33.604Z,10.55
2022-10-28T23:49:15.800Z,11.95
2022-10-28T23:51:50.885Z,15.15
2022-10-28T23:54:29.099Z,12.65
2022-10-28T23:57:02.135Z,14.95
2022-10-28T23:59:50.159Z,20.17
